sensor_id;sensor_type;location;lat;lon;timestamp;pressure;altitude;pressure_sealevel;temperature;humidity
61537;BME280;48695;53.480;-6.300;2023-06-10T00:01:34;100780.94;;;20.25;40.96
61537;BME280;48695;53.480;-6.300;2023-06-10T00:04:01;100775.81;;;20.22;41.20
61537;BME280;48695;53.480;-6.300;2023-06-10T00:06:27;100778.66;;;20.19;40.90
61537;BME280;48695;53.480;-6.300;2023-06-10T00:08:53;100785.09;;;20.15;41.16
61537;BME280;48695;53.480;-6.300;2023-06-10T00:11:20;100779.13;;;20.11;41.34
61537;BME280;48695;53.480;-6.300;2023-06-10T00:13:46;100775.84;;;20.08;41.33
61537;BME280;48695;53.480;-6.300;2023-06-10T00:16:11;100773.34;;;20.05;41.32
61537;BME280;48695;53.480;-6.300;2023-06-10T00:18:37;100776.19;;;20.02;41.13
61537;BME280;48695;53.480;-6.300;2023-06-10T00:21:03;100779.03;;;19.99;41.04
61537;BME280;48695;53.480;-6.300;2023-06-10T00:23:29;100770.50;;;19.93;41.48
61537;BME280;48695;53.480;-6.300;2023-06-10T00:25:57;100776.94;;;19.89;41.54
61537;BME280;48695;53.480;-6.300;2023-06-10T00:28:22;100770.97;;;19.86;41.51
61537;BME280;48695;53.480;-6.300;2023-06-10T00:30:48;100769.44;;;19.82;41.69
61537;BME280;48695;53.480;-6.300;2023-06-10T00:33:13;100766.13;;;19.78;41.67
61537;BME280;48695;53.480;-6.300;2023-06-10T00:35:38;100762.91;;;19.73;41.34
61537;BME280;48695;53.480;-6.300;2023-06-10T00:38:03;100763.09;;;19.70;41.72
61537;BME280;48695;53.480;-6.300;2023-06-10T00:40:29;100766.84;;;19.66;41.89
61537;BME280;48695;53.480;-6.300;2023-06-10T00:42:54;100765.34;;;19.62;41.60
61537;BME280;48695;53.480;-6.300;2023-06-10T00:45:19;100754.03;;;19.58;41.63
61537;BME280;48695;53.480;-6.300;2023-06-10T00:47:44;100761.31;;;19.55;41.72
61537;BME280;48695;53.480;-6.300;2023-06-10T00:50:10;100770.31;;;19.52;42.07
61537;BME280;48695;53.480;-6.300;2023-06-10T00:52:35;100766.97;;;19.49;41.96
61537;BME280;48695;53.480;-6.300;2023-06-10T00:55:01;100758.34;;;19.45;41.76
61537;BME280;48695;53.480;-6.300;2023-06-10T00:57:26;100770.94;;;19.41;42.38
61537;BME280;48695;53.480;-6.300;2023-06-10T00:59:52;100763.16;;;19.38;42.05
61537;BME280;48695;53.480;-6.300;2023-06-10T01:02:17;100770.34;;;19.36;42.09
61537;BME280;48695;53.480;-6.300;2023-06-10T01:04:43;100766.06;;;19.34;42.10
61537;BME280;48695;53.480;-6.300;2023-06-10T01:09:49;100766.53;;;19.26;42.34
61537;BME280;48695;53.480;-6.300;2023-06-10T01:14:54;100764.22;;;19.20;42.29
61537;BME280;48695;53.480;-6.300;2023-06-10T01:17:20;100758.25;;;19.16;42.75
61537;BME280;48695;53.480;-6.300;2023-06-10T01:19:52;100759.28;;;19.14;42.77
61537;BME280;48695;53.480;-6.300;2023-06-10T01:22:20;100763.88;;;19.10;42.49
61537;BME280;48695;53.480;-6.300;2023-06-10T01:24:45;100768.53;;;19.07;42.38
61537;BME280;48695;53.480;-6.300;2023-06-10T01:27:12;100765.94;;;19.05;42.46
61537;BME280;48695;53.480;-6.300;2023-06-10T01:29:43;100757.34;;;19.02;42.91
61537;BME280;48695;53.480;-6.300;2023-06-10T01:34:55;100748.97;;;18.93;42.94
61537;BME280;48695;53.480;-6.300;2023-06-10T01:37:21;100749.06;;;18.92;43.18
61537;BME280;48695;53.480;-6.300;2023-06-10T01:39:49;100747.53;;;18.88;43.22
61537;BME280;48695;53.480;-6.300;2023-06-10T01:42:15;100743.25;;;18.85;43.22
61537;BME280;48695;53.480;-6.300;2023-06-10T01:44:41;100749.59;;;18.83;43.38
61537;BME280;48695;53.480;-6.300;2023-06-10T01:47:07;100750.59;;;18.80;43.32
61537;BME280;48695;53.480;-6.300;2023-06-10T01:49:32;100747.19;;;18.78;43.40
61537;BME280;48695;53.480;-6.300;2023-06-10T01:51:57;100754.38;;;18.76;43.16
61537;BME280;48695;53.480;-6.300;2023-06-10T01:54:23;100738.66;;;18.73;43.23
61537;BME280;48695;53.480;-6.300;2023-06-10T01:56:48;100744.03;;;18.72;43.16
61537;BME280;48695;53.480;-6.300;2023-06-10T01:59:13;100744.13;;;18.70;43.35
61537;BME280;48695;53.480;-6.300;2023-06-10T02:01:38;100745.13;;;18.67;43.51
61537;BME280;48695;53.480;-6.300;2023-06-10T02:04:04;100747.84;;;18.66;43.23
61537;BME280;48695;53.480;-6.300;2023-06-10T02:06:29;100734.78;;;18.63;43.24
61537;BME280;48695;53.480;-6.300;2023-06-10T02:08:55;100737.53;;;18.61;43.29
61537;BME280;48695;53.480;-6.300;2023-06-10T02:11:20;100748.16;;;18.60;43.59
61537;BME280;48695;53.480;-6.300;2023-06-10T02:13:45;100743.91;;;18.57;43.31
61537;BME280;48695;53.480;-6.300;2023-06-10T02:16:10;100742.28;;;18.55;43.82
61537;BME280;48695;53.480;-6.300;2023-06-10T02:18:37;100735.38;;;18.52;43.33
61537;BME280;48695;53.480;-6.300;2023-06-10T02:21:03;100732.84;;;18.51;43.77
61537;BME280;48695;53.480;-6.300;2023-06-10T02:23:28;100735.63;;;18.48;43.42
61537;BME280;48695;53.480;-6.300;2023-06-10T02:25:53;100735.78;;;18.45;43.29
61537;BME280;48695;53.480;-6.300;2023-06-10T02:28:19;100736.75;;;18.44;43.73
61537;BME280;48695;53.480;-6.300;2023-06-10T02:30:44;100736.94;;;18.40;43.83
61537;BME280;48695;53.480;-6.300;2023-06-10T02:33:10;100748.50;;;18.38;43.89
61537;BME280;48695;53.480;-6.300;2023-06-10T02:35:38;100739.81;;;18.36;43.79
61537;BME280;48695;53.480;-6.300;2023-06-10T02:38:04;100741.75;;;18.32;43.84
61537;BME280;48695;53.480;-6.300;2023-06-10T02:40:29;100737.41;;;18.31;44.06
61537;BME280;48695;53.480;-6.300;2023-06-10T02:42:55;100681.09;;;17.98;43.92
61537;BME280;48695;53.480;-6.300;2023-06-10T02:45:20;100735.88;;;18.27;43.73
61537;BME280;48695;53.480;-6.300;2023-06-10T02:47:45;100739.47;;;18.26;43.69
61537;BME280;48695;53.480;-6.300;2023-06-10T02:50:10;100734.22;;;18.25;43.79
61537;BME280;48695;53.480;-6.300;2023-06-10T02:52:36;100730.75;;;18.24;44.14
61537;BME280;48695;53.480;-6.300;2023-06-10T02:55:02;100729.97;;;18.22;44.36
61537;BME280;48695;53.480;-6.300;2023-06-10T02:57:27;100732.63;;;18.22;44.19
61537;BME280;48695;53.480;-6.300;2023-06-10T02:59:52;100732.63;;;18.22;44.41
61537;BME280;48695;53.480;-6.300;2023-06-10T03:02:18;100731.69;;;18.23;44.32
61537;BME280;48695;53.480;-6.300;2023-06-10T03:04:43;100735.19;;;18.24;44.48
61537;BME280;48695;53.480;-6.300;2023-06-10T03:07:10;100739.63;;;18.23;44.59
61537;BME280;48695;53.480;-6.300;2023-06-10T03:09:36;100743.97;;;18.24;44.10
61537;BME280;48695;53.480;-6.300;2023-06-10T03:12:01;100738.66;;;18.24;44.28
61537;BME280;48695;53.480;-6.300;2023-06-10T03:14:27;100734.22;;;18.25;44.21
61537;BME280;48695;53.480;-6.300;2023-06-10T03:16:52;100740.41;;;18.25;44.24
61537;BME280;48695;53.480;-6.300;2023-06-10T03:19:18;100685.84;;;17.91;44.54
61537;BME280;48695;53.480;-6.300;2023-06-10T03:21:44;100751.81;;;18.26;44.39
61537;BME280;48695;53.480;-6.300;2023-06-10T03:24:09;100745.69;;;18.25;44.48
61537;BME280;48695;53.480;-6.300;2023-06-10T03:26:36;100750.03;;;18.26;44.16
61537;BME280;48695;53.480;-6.300;2023-06-10T03:29:01;100744.75;;;18.26;44.27
61537;BME280;48695;53.480;-6.300;2023-06-10T03:31:26;100747.38;;;18.26;44.63
61537;BME280;48695;53.480;-6.300;2023-06-10T03:33:51;100745.69;;;18.25;44.39
61537;BME280;48695;53.480;-6.300;2023-06-10T03:36:17;100740.41;;;18.25;44.58
61537;BME280;48695;53.480;-6.300;2023-06-10T03:38:42;100745.69;;;18.25;44.33
61537;BME280;48695;53.480;-6.300;2023-06-10T03:41:07;100739.53;;;18.25;44.31
61537;BME280;48695;53.480;-6.300;2023-06-10T03:43:32;100741.31;;;18.24;44.32
61537;BME280;48695;53.480;-6.300;2023-06-10T03:45:58;100748.34;;;18.25;44.58
61537;BME280;48695;53.480;-6.300;2023-06-10T03:48:23;100737.75;;;18.25;44.33
61537;BME280;48695;53.480;-6.300;2023-06-10T03:50:49;100726.41;;;18.23;44.84
61537;BME280;48695;53.480;-6.300;2023-06-10T03:53:16;100736.88;;;18.25;44.79
61537;BME280;48695;53.480;-6.300;2023-06-10T03:55:41;100731.69;;;18.23;44.58
61537;BME280;48695;53.480;-6.300;2023-06-10T03:58:06;100736.97;;;18.23;44.92
61537;BME280;48695;53.480;-6.300;2023-06-10T04:00:32;100742.25;;;18.23;44.78
61537;BME280;48695;53.480;-6.300;2023-06-10T04:03:06;100744.91;;;18.23;45.01
61537;BME280;48695;53.480;-6.300;2023-06-10T04:05:34;100740.47;;;18.24;44.67
61537;BME280;48695;53.480;-6.300;2023-06-10T04:07:59;100738.75;;;18.23;44.92
61537;BME280;48695;53.480;-6.300;2023-06-10T04:10:26;100738.75;;;18.23;44.85
61537;BME280;48695;53.480;-6.300;2023-06-10T04:12:51;100737.91;;;18.22;45.19
61537;BME280;48695;53.480;-6.300;2023-06-10T04:15:17;100738.84;;;18.21;44.83
61537;BME280;48695;53.480;-6.300;2023-06-10T04:17:42;100741.50;;;18.21;45.26
61537;BME280;48695;53.480;-6.300;2023-06-10T04:20:08;100737.16;;;18.20;45.33
61537;BME280;48695;53.480;-6.300;2023-06-10T04:22:33;100739.81;;;18.20;45.04
61537;BME280;48695;53.480;-6.300;2023-06-10T04:24:58;100732.78;;;18.19;45.10
61537;BME280;48695;53.480;-6.300;2023-06-10T04:27:24;100722.22;;;18.19;45.08
61537;BME280;48695;53.480;-6.300;2023-06-10T04:29:49;100723.06;;;18.20;45.31
61537;BME280;48695;53.480;-6.300;2023-06-10T04:32:14;100716.91;;;18.19;45.20
61537;BME280;48695;53.480;-6.300;2023-06-10T04:34:40;100722.22;;;18.19;45.57
61537;BME280;48695;53.480;-6.300;2023-06-10T04:37:05;100722.22;;;18.19;45.29
61537;BME280;48695;53.480;-6.300;2023-06-10T04:39:31;100730.13;;;18.19;45.22
61537;BME280;48695;53.480;-6.300;2023-06-10T04:41:57;100733.72;;;18.18;45.42
61537;BME280;48695;53.480;-6.300;2023-06-10T04:44:22;100731.94;;;18.19;45.60
61537;BME280;48695;53.480;-6.300;2023-06-10T04:46:47;100726.63;;;18.19;45.62
61537;BME280;48695;53.480;-6.300;2023-06-10T04:49:13;100727.50;;;18.19;45.69
61537;BME280;48695;53.480;-6.300;2023-06-10T04:51:39;100723.94;;;18.20;45.75
61537;BME280;48695;53.480;-6.300;2023-06-10T04:54:04;100718.66;;;18.20;45.80
61537;BME280;48695;53.480;-6.300;2023-06-10T04:56:30;100719.56;;;18.19;45.70
61537;BME280;48695;53.480;-6.300;2023-06-10T04:59:01;100712.47;;;18.20;45.59
61537;BME280;48695;53.480;-6.300;2023-06-10T05:01:26;100716.91;;;18.19;45.75
61537;BME280;48695;53.480;-6.300;2023-06-10T05:03:52;100723.94;;;18.20;45.89
61537;BME280;48695;53.480;-6.300;2023-06-10T05:06:18;100730.13;;;18.19;45.76
61537;BME280;48695;53.480;-6.300;2023-06-10T05:08:43;100727.50;;;18.19;46.06
61537;BME280;48695;53.480;-6.300;2023-06-10T05:11:09;100723.94;;;18.20;45.58
61537;BME280;48695;53.480;-6.300;2023-06-10T05:13:34;100730.94;;;18.21;45.63
61537;BME280;48695;53.480;-6.300;2023-06-10T05:16:00;100728.19;;;18.23;45.54
61537;BME280;48695;53.480;-6.300;2023-06-10T05:18:25;100723.75;;;18.23;46.09
61537;BME280;48695;53.480;-6.300;2023-06-10T05:20:50;100729.81;;;18.25;45.69
61537;BME280;48695;53.480;-6.300;2023-06-10T05:23:16;100730.59;;;18.27;46.11
61537;BME280;48695;53.480;-6.300;2023-06-10T05:25:41;100732.28;;;18.28;45.84
61537;BME280;48695;53.480;-6.300;2023-06-10T05:28:07;100728.69;;;18.29;45.69
61537;BME280;48695;53.480;-6.300;2023-06-10T05:30:35;100732.13;;;18.31;45.98
61537;BME280;48695;53.480;-6.300;2023-06-10T05:33:00;100736.38;;;18.34;45.93
61537;BME280;48695;53.480;-6.300;2023-06-10T05:35:25;100733.69;;;18.35;46.15
61537;BME280;48695;53.480;-6.300;2023-06-10T05:37:51;100737.09;;;18.37;46.18
61537;BME280;48695;53.480;-6.300;2023-06-10T05:40:16;100739.63;;;18.39;46.09
61537;BME280;48695;53.480;-6.300;2023-06-10T05:42:41;100743.91;;;18.41;46.16
61537;BME280;48695;53.480;-6.300;2023-06-10T05:45:06;100745.63;;;18.42;46.20
61537;BME280;48695;53.480;-6.300;2023-06-10T05:47:32;100740.19;;;18.46;46.36
61537;BME280;48695;53.480;-6.300;2023-06-10T05:49:57;100739.22;;;18.47;46.20
61537;BME280;48695;53.480;-6.300;2023-06-10T05:52:22;100739.13;;;18.48;46.04
61537;BME280;48695;53.480;-6.300;2023-06-10T05:54:48;100736.41;;;18.50;46.08
61537;BME280;48695;53.480;-6.300;2023-06-10T05:57:14;100734.53;;;18.52;46.17
61537;BME280;48695;53.480;-6.300;2023-06-10T05:59:39;100738.78;;;18.54;46.13
61537;BME280;48695;53.480;-6.300;2023-06-10T06:02:04;100731.72;;;18.55;46.19
61537;BME280;48695;53.480;-6.300;2023-06-10T06:04:30;100737.78;;;18.57;46.26
61537;BME280;48695;53.480;-6.300;2023-06-10T06:06:55;100734.94;;;18.60;46.32
61537;BME280;48695;53.480;-6.300;2023-06-10T06:09:20;100736.69;;;18.61;46.60
61537;BME280;48695;53.480;-6.300;2023-06-10T06:11:46;100730.25;;;18.65;46.62
61537;BME280;48695;53.480;-6.300;2023-06-10T06:14:11;100729.25;;;18.67;46.95
61537;BME280;48695;53.480;-6.300;2023-06-10T06:16:38;100733.53;;;18.70;46.88
61537;BME280;48695;53.480;-6.300;2023-06-10T06:19:03;100730.63;;;18.75;46.68
61537;BME280;48695;53.480;-6.300;2023-06-10T06:21:28;100726.97;;;18.77;46.38
61537;BME280;48695;53.480;-6.300;2023-06-10T06:23:53;100733.81;;;18.81;46.81
61537;BME280;48695;53.480;-6.300;2023-06-10T06:26:19;100727.38;;;18.85;46.96
61537;BME280;48695;53.480;-6.300;2023-06-10T06:28:44;100728.91;;;18.89;46.05
61537;BME280;48695;53.480;-6.300;2023-06-10T06:31:10;100728.50;;;18.97;46.93
61537;BME280;48695;53.480;-6.300;2023-06-10T06:33:36;100729.09;;;19.02;46.85
61537;BME280;48695;53.480;-6.300;2023-06-10T06:36:01;100729.56;;;19.09;46.78
61537;BME280;48695;53.480;-6.300;2023-06-10T06:38:26;100724.88;;;19.14;47.24
61537;BME280;48695;53.480;-6.300;2023-06-10T06:40:51;100725.28;;;19.22;47.03
61537;BME280;48695;53.480;-6.300;2023-06-10T06:43:17;100731.06;;;19.29;47.14
61537;BME280;48695;53.480;-6.300;2023-06-10T06:45:43;100726.25;;;19.35;47.22
61537;BME280;48695;53.480;-6.300;2023-06-10T06:48:09;100723.34;;;19.40;46.83
61537;BME280;48695;53.480;-6.300;2023-06-10T06:50:34;100726.56;;;19.45;46.81
61537;BME280;48695;53.480;-6.300;2023-06-10T06:52:59;100734.25;;;19.50;46.85
61537;BME280;48695;53.480;-6.300;2023-06-10T06:55:25;100731.31;;;19.54;47.10
61537;BME280;48695;53.480;-6.300;2023-06-10T06:57:50;100737.31;;;19.58;46.97
61537;BME280;48695;53.480;-6.300;2023-06-10T07:00:15;100737.13;;;19.61;47.12
61537;BME280;48695;53.480;-6.300;2023-06-10T07:02:41;100733.34;;;19.65;46.73
61537;BME280;48695;53.480;-6.300;2023-06-10T07:05:06;100735.72;;;19.69;47.21
61537;BME280;48695;53.480;-6.300;2023-06-10T07:07:32;100728.53;;;19.72;46.98
61537;BME280;48695;53.480;-6.300;2023-06-10T07:09:57;100741.72;;;19.73;46.77
61537;BME280;48695;53.480;-6.300;2023-06-10T07:12:22;100740.59;;;19.77;46.89
61537;BME280;48695;53.480;-6.300;2023-06-10T07:14:49;100733.28;;;19.81;46.42
61537;BME280;48695;53.480;-6.300;2023-06-10T07:17:14;100734.81;;;19.85;46.59
61537;BME280;48695;53.480;-6.300;2023-06-10T07:19:40;100736.44;;;19.87;46.95
61537;BME280;48695;53.480;-6.300;2023-06-10T07:22:05;100747.63;;;19.92;46.70
61537;BME280;48695;53.480;-6.300;2023-06-10T07:24:30;100750.84;;;19.98;46.95
61537;BME280;48695;53.480;-6.300;2023-06-10T07:26:55;100755.75;;;20.04;47.33
61537;BME280;48695;53.480;-6.300;2023-06-10T07:29:21;100758.78;;;20.12;47.16
61537;BME280;48695;53.480;-6.300;2023-06-10T07:31:46;100758.41;;;20.18;47.22
61537;BME280;48695;53.480;-6.300;2023-06-10T07:34:11;100759.56;;;20.28;47.11
61537;BME280;48695;53.480;-6.300;2023-06-10T07:36:36;100765.22;;;20.36;46.80
61537;BME280;48695;53.480;-6.300;2023-06-10T07:39:02;100765.59;;;20.44;46.97
61537;BME280;48695;53.480;-6.300;2023-06-10T07:41:27;100716.56;;;20.23;47.29
61537;BME280;48695;53.480;-6.300;2023-06-10T07:43:53;100767.03;;;20.64;47.27
61537;BME280;48695;53.480;-6.300;2023-06-10T07:46:20;100772.66;;;20.72;47.08
61537;BME280;48695;53.480;-6.300;2023-06-10T07:48:46;100771.34;;;20.80;47.06
61537;BME280;48695;53.480;-6.300;2023-06-10T07:51:11;100772.66;;;20.87;46.55
61537;BME280;48695;53.480;-6.300;2023-06-10T07:53:37;100766.94;;;20.93;46.60
61537;BME280;48695;53.480;-6.300;2023-06-10T07:56:02;100759.44;;;20.99;46.84
61537;BME280;48695;53.480;-6.300;2023-06-10T07:58:27;100764.22;;;21.07;46.56
61537;BME280;48695;53.480;-6.300;2023-06-10T08:00:53;100752.16;;;21.16;46.93
61537;BME280;48695;53.480;-6.300;2023-06-10T08:03:19;100763.88;;;21.26;46.82
61537;BME280;48695;53.480;-6.300;2023-06-10T08:05:44;100759.69;;;21.36;46.65
61537;BME280;48695;53.480;-6.300;2023-06-10T08:08:09;100759.94;;;21.46;46.87
61537;BME280;48695;53.480;-6.300;2023-06-10T08:10:35;100760.16;;;21.56;46.41
61537;BME280;48695;53.480;-6.300;2023-06-10T08:13:00;100762.94;;;21.67;46.48
61537;BME280;48695;53.480;-6.300;2023-06-10T08:15:25;100762.31;;;21.76;46.35
61537;BME280;48695;53.480;-6.300;2023-06-10T08:17:50;100751.06;;;21.85;46.18
61537;BME280;48695;53.480;-6.300;2023-06-10T08:20:17;100755.72;;;21.94;46.21
61537;BME280;48695;53.480;-6.300;2023-06-10T08:22:42;100755.19;;;22.02;46.22
61537;BME280;48695;53.480;-6.300;2023-06-10T08:25:08;100762.63;;;22.10;46.18
61537;BME280;48695;53.480;-6.300;2023-06-10T08:27:33;100762.13;;;22.17;45.65
61537;BME280;48695;53.480;-6.300;2023-06-10T08:29:58;100775.13;;;22.22;45.23
61537;BME280;48695;53.480;-6.300;2023-06-10T08:32:25;100770.31;;;22.27;45.94
61537;BME280;48695;53.480;-6.300;2023-06-10T08:34:50;100771.81;;;22.31;45.74
61537;BME280;48695;53.480;-6.300;2023-06-10T08:37:16;100765.28;;;22.35;45.82
61537;BME280;48695;53.480;-6.300;2023-06-10T08:39:41;100768.47;;;22.40;45.57
61537;BME280;48695;53.480;-6.300;2023-06-10T08:44:38;100765.94;;;22.51;45.47
61537;BME280;48695;53.480;-6.300;2023-06-10T08:47:14;100769.97;;;22.57;45.84
61537;BME280;48695;53.480;-6.300;2023-06-10T08:49:43;100768.66;;;22.63;45.48
61537;BME280;48695;53.480;-6.300;2023-06-10T08:52:11;100759.50;;;22.67;45.65
61537;BME280;48695;53.480;-6.300;2023-06-10T08:54:38;100766.06;;;22.74;45.52
61537;BME280;48695;53.480;-6.300;2023-06-10T08:57:07;100769.25;;;22.79;45.21
61537;BME280;48695;53.480;-6.300;2023-06-10T08:59:32;100768.78;;;22.85;45.24
61537;BME280;48695;53.480;-6.300;2023-06-10T09:01:58;100774.44;;;22.93;44.95
61537;BME280;48695;53.480;-6.300;2023-06-10T09:04:26;100773.03;;;23.00;45.12
61537;BME280;48695;53.480;-6.300;2023-06-10T09:06:52;100776.84;;;23.09;45.10
61537;BME280;48695;53.480;-6.300;2023-06-10T09:09:17;100766.47;;;23.17;45.43
61537;BME280;48695;53.480;-6.300;2023-06-10T09:11:43;100769.31;;;23.27;45.44
61537;BME280;48695;53.480;-6.300;2023-06-10T09:14:08;100763.25;;;23.36;45.37
61537;BME280;48695;53.480;-6.300;2023-06-10T09:16:33;100766.22;;;23.44;45.51
61537;BME280;48695;53.480;-6.300;2023-06-10T09:18:59;100758.50;;;23.52;45.34
61537;BME280;48695;53.480;-6.300;2023-06-10T09:21:24;100771.88;;;23.64;45.26
61537;BME280;48695;53.480;-6.300;2023-06-10T09:23:50;100768.63;;;23.71;45.16
61537;BME280;48695;53.480;-6.300;2023-06-10T09:26:16;100768.75;;;23.81;44.71
61537;BME280;48695;53.480;-6.300;2023-06-10T09:28:43;100774.38;;;23.89;45.08
61537;BME280;48695;53.480;-6.300;2023-06-10T09:31:08;100771.22;;;23.95;44.60
61537;BME280;48695;53.480;-6.300;2023-06-10T09:33:37;100770.72;;;24.01;44.81
61537;BME280;48695;53.480;-6.300;2023-06-10T09:36:04;100775.56;;;24.07;44.19
61537;BME280;48695;53.480;-6.300;2023-06-10T09:38:34;100773.41;;;24.13;44.29
61537;BME280;48695;53.480;-6.300;2023-06-10T09:40:59;100777.44;;;24.18;44.32
61537;BME280;48695;53.480;-6.300;2023-06-10T09:43:47;100776.81;;;24.26;44.42
61537;BME280;48695;53.480;-6.300;2023-06-10T09:46:14;100771.72;;;24.34;44.04
61537;BME280;48695;53.480;-6.300;2023-06-10T09:48:41;100775.50;;;24.43;43.86
61537;BME280;48695;53.480;-6.300;2023-06-10T09:51:10;100774.91;;;24.50;43.96
61537;BME280;48695;53.480;-6.300;2023-06-10T09:53:36;100774.66;;;24.65;43.93
61537;BME280;48695;53.480;-6.300;2023-06-10T09:56:01;100782.41;;;24.79;44.19
61537;BME280;48695;53.480;-6.300;2023-06-10T09:58:39;100776.53;;;24.96;44.22
61537;BME280;48695;53.480;-6.300;2023-06-10T10:01:05;100770.66;;;25.14;44.22
61537;BME280;48695;53.480;-6.300;2023-06-10T10:03:30;100768.28;;;25.31;43.80
61537;BME280;48695;53.480;-6.300;2023-06-10T10:05:59;100769.28;;;25.51;43.52
61537;BME280;48695;53.480;-6.300;2023-06-10T10:08:25;100764.34;;;25.68;43.37
61537;BME280;48695;53.480;-6.300;2023-06-10T10:10:50;100770.38;;;25.81;43.64
61537;BME280;48695;53.480;-6.300;2023-06-10T10:13:16;100772.00;;;25.93;43.38
61537;BME280;48695;53.480;-6.300;2023-06-10T10:15:41;100776.28;;;26.05;43.41
61537;BME280;48695;53.480;-6.300;2023-06-10T10:18:07;100773.09;;;26.11;43.15
61537;BME280;48695;53.480;-6.300;2023-06-10T10:20:34;100762.69;;;26.18;43.05
61537;BME280;48695;53.480;-6.300;2023-06-10T10:23:03;100767.63;;;26.23;42.54
61537;BME280;48695;53.480;-6.300;2023-06-10T10:25:29;100762.72;;;26.28;42.98
61537;BME280;48695;53.480;-6.300;2023-06-10T10:28:07;100763.03;;;26.34;42.69
61537;BME280;48695;53.480;-6.300;2023-06-10T10:30:34;100751.78;;;26.40;42.81
61537;BME280;48695;53.480;-6.300;2023-06-10T10:35:47;100743.81;;;26.50;42.29
61537;BME280;48695;53.480;-6.300;2023-06-10T10:38:13;100749.03;;;26.52;42.63
61537;BME280;48695;53.480;-6.300;2023-06-10T10:40:38;100735.78;;;26.50;42.20
61537;BME280;48695;53.480;-6.300;2023-06-10T10:43:04;100746.63;;;26.49;42.34
61537;BME280;48695;53.480;-6.300;2023-06-10T10:45:30;100747.03;;;26.44;42.13
61537;BME280;48695;53.480;-6.300;2023-06-10T10:47:58;100750.94;;;26.40;41.71
61537;BME280;48695;53.480;-6.300;2023-06-10T10:50:28;100734.56;;;26.33;41.83
61537;BME280;48695;53.480;-6.300;2023-06-10T10:52:57;100740.47;;;26.27;41.96
61537;BME280;48695;53.480;-6.300;2023-06-10T10:55:24;100736.63;;;26.20;41.50
61537;BME280;48695;53.480;-6.300;2023-06-10T10:57:59;100723.91;;;26.12;41.94
61537;BME280;48695;53.480;-6.300;2023-06-10T11:00:57;100727.16;;;26.06;41.54
61537;BME280;48695;53.480;-6.300;2023-06-10T11:03:16;100722.31;;;26.00;42.06
61537;BME280;48695;53.480;-6.300;2023-06-10T11:05:45;100716.09;;;26.00;42.16
61537;BME280;48695;53.480;-6.300;2023-06-10T11:08:14;100707.97;;;26.01;41.83
61537;BME280;48695;53.480;-6.300;2023-06-10T11:10:40;100708.41;;;26.06;41.93
61537;BME280;48695;53.480;-6.300;2023-06-10T11:15:32;100705.81;;;26.26;42.34
61537;BME280;48695;53.480;-6.300;2023-06-10T11:18:14;100707.13;;;26.41;42.68
61537;BME280;48695;53.480;-6.300;2023-06-10T11:23:08;100709.63;;;26.83;42.41
61537;BME280;48695;53.480;-6.300;2023-06-10T11:25:39;100710.47;;;27.03;42.13
61537;BME280;48695;53.480;-6.300;2023-06-10T11:28:17;100726.03;;;27.28;42.38
61537;BME280;48695;53.480;-6.300;2023-06-10T11:30:42;100721.16;;;27.61;42.44
61537;BME280;48695;53.480;-6.300;2023-06-10T11:33:07;100732.97;;;27.97;42.22
61537;BME280;48695;53.480;-6.300;2023-06-10T11:35:33;100731.16;;;28.35;42.11
61537;BME280;48695;53.480;-6.300;2023-06-10T11:37:58;100733.75;;;28.72;41.84
61537;BME280;48695;53.480;-6.300;2023-06-10T11:40:24;100722.22;;;29.07;41.64
61537;BME280;48695;53.480;-6.300;2023-06-10T11:42:49;100719.13;;;29.38;41.00
61537;BME280;48695;53.480;-6.300;2023-06-10T11:45:15;100714.31;;;29.67;41.02
61537;BME280;48695;53.480;-6.300;2023-06-10T11:47:41;100722.22;;;29.95;40.80
61537;BME280;48695;53.480;-6.300;2023-06-10T11:50:27;100721.88;;;30.24;40.27
61537;BME280;48695;53.480;-6.300;2023-06-10T11:52:52;100716.09;;;30.53;40.03
61537;BME280;48695;53.480;-6.300;2023-06-10T11:55:20;100715.53;;;30.84;40.51
61537;BME280;48695;53.480;-6.300;2023-06-10T11:57:46;100704.94;;;31.15;39.74
61537;BME280;48695;53.480;-6.300;2023-06-10T12:00:11;100707.81;;;31.46;39.75
61537;BME280;48695;53.480;-6.300;2023-06-10T12:02:37;100703.72;;;31.74;39.24
61537;BME280;48695;53.480;-6.300;2023-06-10T12:05:14;100702.97;;;32.05;38.93
61537;BME280;48695;53.480;-6.300;2023-06-10T12:07:40;100709.44;;;32.35;38.52
61537;BME280;48695;53.480;-6.300;2023-06-10T12:10:05;100710.00;;;32.62;38.70
61537;BME280;48695;53.480;-6.300;2023-06-10T12:12:30;100696.81;;;32.90;38.77
61537;BME280;48695;53.480;-6.300;2023-06-10T12:14:59;100698.50;;;33.14;38.08
61537;BME280;48695;53.480;-6.300;2023-06-10T12:19:55;100703.75;;;33.53;37.07
61537;BME280;48695;53.480;-6.300;2023-06-10T12:22:20;100693.97;;;33.67;36.28
61537;BME280;48695;53.480;-6.300;2023-06-10T12:24:56;100706.22;;;33.77;35.98
61537;BME280;48695;53.480;-6.300;2023-06-10T12:27:24;100706.78;;;33.88;35.66
61537;BME280;48695;53.480;-6.300;2023-06-10T12:29:52;100707.72;;;33.95;35.70
61537;BME280;48695;53.480;-6.300;2023-06-10T12:32:34;100714.09;;;34.02;35.45
61537;BME280;48695;53.480;-6.300;2023-06-10T12:35:03;100717.09;;;34.07;35.43
61537;BME280;48695;53.480;-6.300;2023-06-10T12:37:31;100720.06;;;34.12;35.34
61537;BME280;48695;53.480;-6.300;2023-06-10T12:40:04;100718.84;;;34.15;35.28
61537;BME280;48695;53.480;-6.300;2023-06-10T12:42:31;100710.50;;;34.16;35.45
61537;BME280;48695;53.480;-6.300;2023-06-10T12:44:58;100718.84;;;34.15;35.43
61537;BME280;48695;53.480;-6.300;2023-06-10T12:47:38;100711.75;;;34.14;34.52
61537;BME280;48695;53.480;-6.300;2023-06-10T12:50:04;100710.91;;;34.13;35.36
61537;BME280;48695;53.480;-6.300;2023-06-10T12:52:30;100713.63;;;34.13;34.73
61537;BME280;48695;53.480;-6.300;2023-06-10T12:54:55;100711.94;;;34.12;34.78
61537;BME280;48695;53.480;-6.300;2023-06-10T12:57:22;100714.66;;;34.12;34.36